< Typhoon 200111 2001 Season Typhoon 200113 >
Typhoon 200112 (WUTIP)
General InformationTrack Information on Google MapsDetailed Wind InformationList of All Images || NewsDisaster Info.ResourceGoogle EarthGE AnimationAtom FeedGeoJSON
Detalied Best Track (Time Zone = UTC)
Year Month Day Hour Lat. Long. Pressure (hPa) Wind (kt) Class Image Chart
2001 8 26 06 15.9 139.9 1000 0 2 Image Chart
2001 8 26 12 16.1 140.2 1000 0 2 Image Chart
2001 8 26 18 16.3 140.1 1000 0 2 Image Chart
2001 8 27 00 16.6 140.7 1000 0 2 Image Chart
2001 8 27 06 17.5 141.0 996 35 3 Image Chart
2001 8 27 12 18.0 141.5 994 40 3 Image Chart
2001 8 27 18 18.8 142.1 990 45 3 Image Chart
2001 8 28 00 19.6 143.0 985 55 4 Image Chart
2001 8 28 06 20.4 143.6 975 60 4 Image Chart
2001 8 28 12 21.2 144.4 965 70 5 Image Chart
2001 8 28 18 22.1 144.9 955 75 5 Image Chart
2001 8 29 00 22.8 145.4 945 80 5 Image Chart
2001 8 29 06 23.4 145.9 935 85 5 Image Chart
2001 8 29 12 24.0 146.5 930 90 5 Image Chart
2001 8 29 18 24.6 146.8 930 90 5 Image Chart
2001 8 30 00 25.1 147.1 930 90 5 Image Chart
2001 8 30 06 25.5 147.4 935 85 5 Image Chart
2001 8 30 12 26.0 147.8 945 80 5 Image Chart
2001 8 30 18 26.9 147.7 955 75 5 Image Chart
2001 8 31 00 27.6 147.7 960 70 5 Image Chart
2001 8 31 06 28.5 148.0 960 70 5 Image Chart
2001 8 31 12 29.4 148.5 965 65 5 Image Chart
2001 8 31 18 30.1 149.2 970 60 4 Image Chart
2001 9 1 00 31.1 150.0 970 60 4 Image Chart
2001 9 1 06 32.0 151.0 975 60 4 Image Chart
2001 9 1 12 32.7 152.3 975 60 4 Image Chart
2001 9 1 18 33.2 153.1 980 55 4 Image Chart
2001 9 2 00 33.9 154.3 985 50 4 Image Chart
2001 9 2 06 34.7 155.7 990 45 3 Image Chart
2001 9 2 12 35.2 157.1 990 45 3 Image Chart
2001 9 2 18 36.2 157.9 994 40 3 Image Chart
2001 9 3 00 37.4 160.0 996 0 6 Image Chart
2001 9 3 06 38.9 162.7 996 0 6 Image Chart
2001 9 3 12 41.0 166.5 998 0 6 Image Chart
2001 9 3 18 42.6 170.9 998 0 6 Image Chart
2001 9 4 00 43.9 175.0 998 0 6 Image Chart
2001 9 4 06 46.5 180.6 996 0 6 Image Chart
Japan Meteorological Agency Best Track Data | Correction Date : 2002-01-24
< Typhoon 200111 2001 Season Typhoon 200113 >

Help